sensor_id;sensor_type;location;lat;lon;timestamp;pressure;altitude;pressure_sealevel;temperature;humidity
23619;BME280;18207;32.078;34.818;2023-02-22T00:01:29;101323.06;;;22.20;38.54
23619;BME280;18207;32.078;34.818;2023-02-22T00:04:20;101325.38;;;22.18;39.17
23619;BME280;18207;32.078;34.818;2023-02-22T00:06:52;101324.91;;;22.16;38.63
23619;BME280;18207;32.078;34.818;2023-02-22T00:09:30;101328.03;;;22.14;39.01
23619;BME280;18207;32.078;34.818;2023-02-22T00:12:01;101325.56;;;22.13;38.79
23619;BME280;18207;32.078;34.818;2023-02-22T00:14:32;101325.06;;;22.11;38.75
23619;BME280;18207;32.078;34.818;2023-02-22T00:17:02;101318.16;;;22.08;38.64
23619;BME280;18207;32.078;34.818;2023-02-22T00:19:32;101318.16;;;22.08;38.73
23619;BME280;18207;32.078;34.818;2023-02-22T00:22:02;101316.88;;;22.06;38.87
23619;BME280;18207;32.078;34.818;2023-02-22T00:24:36;101322.78;;;22.04;38.88
23619;BME280;18207;32.078;34.818;2023-02-22T00:27:06;101313.91;;;22.02;38.80
23619;BME280;18207;32.078;34.818;2023-02-22T00:29:37;101313.91;;;22.02;39.08
23619;BME280;18207;32.078;34.818;2023-02-22T00:32:08;101312.25;;;22.01;38.66
23619;BME280;18207;32.078;34.818;2023-02-22T00:34:38;101306.97;;;22.00;39.09
23619;BME280;18207;32.078;34.818;2023-02-22T00:37:11;101310.13;;;21.98;39.33
23619;BME280;18207;32.078;34.818;2023-02-22T00:39:46;101306.47;;;21.98;38.99
23619;BME280;18207;32.078;34.818;2023-02-22T00:42:18;101301.22;;;21.96;38.93
23619;BME280;18207;32.078;34.818;2023-02-22T00:44:49;101306.00;;;21.96;39.05
23619;BME280;18207;32.078;34.818;2023-02-22T00:47:19;101303.53;;;21.94;38.75
23619;BME280;18207;32.078;34.818;2023-02-22T00:49:50;101307.47;;;21.93;39.39
23619;BME280;18207;32.078;34.818;2023-02-22T00:52:21;101302.22;;;21.92;39.47
23619;BME280;18207;32.078;34.818;2023-02-22T00:54:54;101301.41;;;21.91;39.04
23619;BME280;18207;32.078;34.818;2023-02-22T00:57:25;101302.88;;;21.89;38.85
23619;BME280;18207;32.078;34.818;2023-02-22T00:59:55;101306.84;;;21.88;38.99
23619;BME280;18207;32.078;34.818;2023-02-22T01:02:25;101308.00;;;21.87;39.38
23619;BME280;18207;32.078;34.818;2023-02-22T01:04:56;101297.13;;;21.85;39.20
23619;BME280;18207;32.078;34.818;2023-02-22T01:07:27;101297.47;;;21.84;39.13
23619;BME280;18207;32.078;34.818;2023-02-22T01:09:59;101302.22;;;21.83;39.11
23619;BME280;18207;32.078;34.818;2023-02-22T01:12:29;101299.75;;;21.82;39.50
23619;BME280;18207;32.078;34.818;2023-02-22T01:15:00;101292.53;;;21.81;39.45
23619;BME280;18207;32.078;34.818;2023-02-22T01:17:31;101298.47;;;21.79;39.49
23619;BME280;18207;32.078;34.818;2023-02-22T01:20:03;101295.66;;;21.79;39.00
23619;BME280;18207;32.078;34.818;2023-02-22T01:22:40;101283.97;;;21.77;39.26
23619;BME280;18207;32.078;34.818;2023-02-22T01:25:17;101294.34;;;21.77;39.60
23619;BME280;18207;32.078;34.818;2023-02-22T01:27:49;101283.47;;;21.75;39.65
23619;BME280;18207;32.078;34.818;2023-02-22T01:30:23;101287.91;;;21.76;39.63
23619;BME280;18207;32.078;34.818;2023-02-22T01:32:55;101293.00;;;21.74;39.09
23619;BME280;18207;32.078;34.818;2023-02-22T01:35:30;101295.00;;;21.74;39.40
23619;BME280;18207;32.078;34.818;2023-02-22T01:38:00;101287.75;;;21.73;39.41
23619;BME280;18207;32.078;34.818;2023-02-22T01:40:36;101281.34;;;21.72;39.66
23619;BME280;18207;32.078;34.818;2023-02-22T01:43:23;101282.50;;;21.71;39.67
23619;BME280;18207;32.078;34.818;2023-02-22T01:45:58;101282.81;;;21.70;39.44
23619;BME280;18207;32.078;34.818;2023-02-22T01:48:40;101276.75;;;21.68;39.51
23619;BME280;18207;32.078;34.818;2023-02-22T01:51:16;101277.91;;;21.67;39.70
23619;BME280;18207;32.078;34.818;2023-02-22T01:53:52;101281.00;;;21.65;39.57
23619;BME280;18207;32.078;34.818;2023-02-22T01:56:27;101281.34;;;21.64;39.67
23619;BME280;18207;32.078;34.818;2023-02-22T01:59:04;101281.69;;;21.62;39.56
23619;BME280;18207;32.078;34.818;2023-02-22T02:01:39;101273.31;;;21.62;39.53
23619;BME280;18207;32.078;34.818;2023-02-22T02:04:16;101282.00;;;21.61;39.30
23619;BME280;18207;32.078;34.818;2023-02-22T02:06:48;101273.94;;;21.59;39.61
23619;BME280;18207;32.078;34.818;2023-02-22T02:09:29;101271.50;;;21.58;39.59
23619;BME280;18207;32.078;34.818;2023-02-22T02:12:06;101271.00;;;21.56;39.58
23619;BME280;18207;32.078;34.818;2023-02-22T02:14:40;101271.00;;;21.56;39.21
23619;BME280;18207;32.078;34.818;2023-02-22T02:17:15;101272.09;;;21.55;39.38
23619;BME280;18207;32.078;34.818;2023-02-22T02:20:02;101267.66;;;21.54;39.63
23619;BME280;18207;32.078;34.818;2023-02-22T02:22:47;101265.22;;;21.52;39.75
23619;BME280;18207;32.078;34.818;2023-02-22T02:29:30;101257.81;;;21.48;39.67
23619;BME280;18207;32.078;34.818;2023-02-22T02:32:34;101263.72;;;21.47;39.37
23619;BME280;18207;32.078;34.818;2023-02-22T02:35:12;101263.72;;;21.47;39.52
23619;BME280;18207;32.078;34.818;2023-02-22T02:37:58;101261.25;;;21.45;39.48
23619;BME280;18207;32.078;34.818;2023-02-22T02:40:39;101262.06;;;21.46;39.42
23619;BME280;18207;32.078;34.818;2023-02-22T02:43:17;101254.00;;;21.44;39.25
23619;BME280;18207;32.078;34.818;2023-02-22T02:46:01;101257.97;;;21.43;39.80
23619;BME280;18207;32.078;34.818;2023-02-22T02:48:40;101253.50;;;21.42;39.83
23619;BME280;18207;32.078;34.818;2023-02-22T02:51:14;101249.06;;;21.41;39.74
23619;BME280;18207;32.078;34.818;2023-02-22T02:53:48;101251.06;;;21.41;39.35
23619;BME280;18207;32.078;34.818;2023-02-22T02:56:20;101249.41;;;21.40;39.90
23619;BME280;18207;32.078;34.818;2023-02-22T02:58:53;101246.63;;;21.40;39.78
23619;BME280;18207;32.078;34.818;2023-02-22T03:01:46;101248.56;;;21.39;39.71
23619;BME280;18207;32.078;34.818;2023-02-22T03:07:23;101242.81;;;21.36;39.48
23619;BME280;18207;32.078;34.818;2023-02-22T03:10:16;101243.97;;;21.35;39.82
23619;BME280;18207;32.078;34.818;2023-02-22T03:13:09;101243.50;;;21.33;39.44
23619;BME280;18207;32.078;34.818;2023-02-22T03:15:54;101247.44;;;21.32;39.56
23619;BME280;18207;32.078;34.818;2023-02-22T03:18:45;101241.00;;;21.31;39.30
23619;BME280;18207;32.078;34.818;2023-02-22T03:21:29;101244.16;;;21.30;39.36
23619;BME280;18207;32.078;34.818;2023-02-22T03:24:08;101239.38;;;21.30;39.91
23619;BME280;18207;32.078;34.818;2023-02-22T03:26:47;101238.06;;;21.28;39.77
23619;BME280;18207;32.078;34.818;2023-02-22T03:29:23;101242.84;;;21.27;39.36
23619;BME280;18207;32.078;34.818;2023-02-22T03:31:57;101246.78;;;21.26;39.46
23619;BME280;18207;32.078;34.818;2023-02-22T03:34:34;101243.47;;;21.24;39.48
23619;BME280;18207;32.078;34.818;2023-02-22T03:37:16;101237.09;;;21.24;39.57
23619;BME280;18207;32.078;34.818;2023-02-22T03:39:50;101244.63;;;21.23;39.42
23619;BME280;18207;32.078;34.818;2023-02-22T03:42:29;101237.41;;;21.22;39.29
23619;BME280;18207;32.078;34.818;2023-02-22T03:45:03;101241.34;;;21.21;39.64
23619;BME280;18207;32.078;34.818;2023-02-22T03:47:42;101232.13;;;21.21;39.79
23619;BME280;18207;32.078;34.818;2023-02-22T03:50:18;101232.47;;;21.19;39.66
23619;BME280;18207;32.078;34.818;2023-02-22T03:52:52;101243.97;;;21.18;39.45
23619;BME280;18207;32.078;34.818;2023-02-22T03:55:23;101245.97;;;21.17;39.44
23619;BME280;18207;32.078;34.818;2023-02-22T03:57:59;101243.47;;;21.16;39.54
23619;BME280;18207;32.078;34.818;2023-02-22T04:00:34;101238.22;;;21.14;39.51
23619;BME280;18207;32.078;34.818;2023-02-22T04:03:17;101243.31;;;21.12;39.38
23619;BME280;18207;32.078;34.818;2023-02-22T04:05:52;101238.06;;;21.11;39.33
23619;BME280;18207;32.078;34.818;2023-02-22T04:08:24;101240.00;;;21.10;39.93
23619;BME280;18207;32.078;34.818;2023-02-22T04:10:54;101237.56;;;21.09;39.87
23619;BME280;18207;32.078;34.818;2023-02-22T04:13:25;101244.28;;;21.08;39.85
23619;BME280;18207;32.078;34.818;2023-02-22T04:16:03;101246.28;;;21.07;39.72
23619;BME280;18207;32.078;34.818;2023-02-22T04:18:33;101245.78;;;21.05;39.90
23619;BME280;18207;32.078;34.818;2023-02-22T04:21:04;101248.56;;;21.05;39.80
23619;BME280;18207;32.078;34.818;2023-02-22T04:23:39;101250.53;;;21.05;39.48
23619;BME280;18207;32.078;34.818;2023-02-22T04:26:10;101250.06;;;21.03;39.43
23619;BME280;18207;32.078;34.818;2023-02-22T04:28:41;101256.44;;;21.03;39.49
23619;BME280;18207;32.078;34.818;2023-02-22T04:31:11;101252.00;;;21.02;39.99
23619;BME280;18207;32.078;34.818;2023-02-22T04:33:42;101253.16;;;21.01;39.92
23619;BME280;18207;32.078;34.818;2023-02-22T04:36:13;101255.13;;;21.01;40.00
23619;BME280;18207;32.078;34.818;2023-02-22T04:38:46;101259.56;;;21.02;39.89
23619;BME280;18207;32.078;34.818;2023-02-22T04:41:18;101258.75;;;21.01;39.92
23619;BME280;18207;32.078;34.818;2023-02-22T04:43:55;101257.94;;;21.01;39.99
23619;BME280;18207;32.078;34.818;2023-02-22T04:46:26;101258.75;;;21.01;40.10
23619;BME280;18207;32.078;34.818;2023-02-22T04:48:57;101262.69;;;21.00;39.64
23619;BME280;18207;32.078;34.818;2023-02-22T04:51:27;101267.13;;;21.01;39.67
23619;BME280;18207;32.078;34.818;2023-02-22T04:53:59;101275.19;;;21.03;40.18
23619;BME280;18207;32.078;34.818;2023-02-22T04:56:30;101276.84;;;21.04;39.63
23619;BME280;18207;32.078;34.818;2023-02-22T04:59:14;101275.03;;;21.08;40.33
23619;BME280;18207;32.078;34.818;2023-02-22T05:02:04;101272.09;;;21.13;40.46
23619;BME280;18207;32.078;34.818;2023-02-22T05:04:36;101271.91;;;21.18;40.02
23619;BME280;18207;32.078;34.818;2023-02-22T05:07:06;101274.22;;;21.24;40.55
23619;BME280;18207;32.078;34.818;2023-02-22T05:09:38;101279.00;;;21.32;40.59
23619;BME280;18207;32.078;34.818;2023-02-22T05:12:08;101279.03;;;21.41;40.48
23619;BME280;18207;32.078;34.818;2023-02-22T05:14:39;101274.25;;;21.50;40.83
23619;BME280;18207;32.078;34.818;2023-02-22T05:17:15;101277.56;;;21.60;40.47
23619;BME280;18207;32.078;34.818;2023-02-22T05:19:47;101274.13;;;21.71;41.01
23619;BME280;18207;32.078;34.818;2023-02-22T05:22:19;101281.03;;;21.82;40.63
23619;BME280;18207;32.078;34.818;2023-02-22T05:24:51;101276.38;;;21.95;40.91
23619;BME280;18207;32.078;34.818;2023-02-22T05:27:35;101278.16;;;22.08;41.00
23619;BME280;18207;32.078;34.818;2023-02-22T05:30:06;101282.25;;;22.19;41.19
23619;BME280;18207;32.078;34.818;2023-02-22T05:32:37;101284.69;;;22.29;40.72
23619;BME280;18207;32.078;34.818;2023-02-22T05:35:07;101270.03;;;22.40;40.91
23619;BME280;18207;32.078;34.818;2023-02-22T05:37:38;101276.06;;;22.50;41.23
23619;BME280;18207;32.078;34.818;2023-02-22T05:40:13;101271.75;;;22.61;41.37
23619;BME280;18207;32.078;34.818;2023-02-22T05:42:45;101265.41;;;22.73;41.06
23619;BME280;18207;32.078;34.818;2023-02-22T05:45:18;101273.56;;;22.86;41.20
23619;BME280;18207;32.078;34.818;2023-02-22T05:48:03;101271.34;;;23.00;41.14
23619;BME280;18207;32.078;34.818;2023-02-22T05:50:34;101268.34;;;23.14;41.18
23619;BME280;18207;32.078;34.818;2023-02-22T05:53:05;101273.34;;;23.29;41.24
23619;BME280;18207;32.078;34.818;2023-02-22T05:55:37;101271.09;;;23.42;41.17
23619;BME280;18207;32.078;34.818;2023-02-22T05:58:07;101278.75;;;23.54;41.21
23619;BME280;18207;32.078;34.818;2023-02-22T06:00:37;101263.13;;;23.65;41.16
23619;BME280;18207;32.078;34.818;2023-02-22T06:03:10;101270.84;;;23.76;41.06
23619;BME280;18207;32.078;34.818;2023-02-22T06:05:41;101273.69;;;23.88;41.34
23619;BME280;18207;32.078;34.818;2023-02-22T06:08:12;101266.44;;;23.99;40.90
23619;BME280;18207;32.078;34.818;2023-02-22T06:10:53;101266.84;;;24.10;40.64
23619;BME280;18207;32.078;34.818;2023-02-22T06:13:24;101270.38;;;24.18;40.84
23619;BME280;18207;32.078;34.818;2023-02-22T06:15:54;101266.78;;;24.30;40.99
23619;BME280;18207;32.078;34.818;2023-02-22T06:18:26;101268.81;;;24.41;40.95
23619;BME280;18207;32.078;34.818;2023-02-22T06:20:59;101262.75;;;24.51;40.67
23619;BME280;18207;32.078;34.818;2023-02-22T06:23:29;101271.91;;;24.60;40.42
23619;BME280;18207;32.078;34.818;2023-02-22T06:26:05;101264.16;;;24.69;40.24
23619;BME280;18207;32.078;34.818;2023-02-22T06:28:36;101259.63;;;24.77;40.25
23619;BME280;18207;32.078;34.818;2023-02-22T06:31:06;101262.28;;;24.85;40.49
23619;BME280;18207;32.078;34.818;2023-02-22T06:33:37;101257.03;;;24.96;40.19
23619;BME280;18207;32.078;34.818;2023-02-22T06:36:20;101252.53;;;25.06;40.35
23619;BME280;18207;32.078;34.818;2023-02-22T06:38:51;101261.34;;;25.17;40.26
23619;BME280;18207;32.078;34.818;2023-02-22T06:41:23;101253.22;;;25.27;40.05
23619;BME280;18207;32.078;34.818;2023-02-22T06:43:53;101247.94;;;25.38;40.24
23619;BME280;18207;32.078;34.818;2023-02-22T06:46:23;101260.34;;;25.49;39.88
23619;BME280;18207;32.078;34.818;2023-02-22T06:48:54;101258.66;;;25.60;40.11
23619;BME280;18207;32.078;34.818;2023-02-22T06:51:27;101246.91;;;25.70;39.88
23619;BME280;18207;32.078;34.818;2023-02-22T06:53:58;101243.94;;;25.78;39.77
23619;BME280;18207;32.078;34.818;2023-02-22T06:56:43;101249.91;;;25.89;39.49
23619;BME280;18207;32.078;34.818;2023-02-22T06:59:14;101250.56;;;25.98;39.89
23619;BME280;18207;32.078;34.818;2023-02-22T07:01:45;101242.75;;;26.06;39.50
23619;BME280;18207;32.078;34.818;2023-02-22T07:04:15;101244.22;;;26.16;39.42
23619;BME280;18207;32.078;34.818;2023-02-22T07:06:46;101246.03;;;26.24;39.42
23619;BME280;18207;32.078;34.818;2023-02-22T07:09:18;101243.44;;;26.31;39.24
23619;BME280;18207;32.078;34.818;2023-02-22T07:11:50;101238.81;;;26.38;39.20
23619;BME280;18207;32.078;34.818;2023-02-22T07:14:21;101239.81;;;26.46;39.06
23619;BME280;18207;32.078;34.818;2023-02-22T07:16:51;101241.28;;;26.55;39.14
23619;BME280;18207;32.078;34.818;2023-02-22T07:19:21;101243.91;;;26.64;38.98
23619;BME280;18207;32.078;34.818;2023-02-22T07:21:53;101248.91;;;26.70;38.85
23619;BME280;18207;32.078;34.818;2023-02-22T07:24:38;101233.34;;;26.76;38.80
23619;BME280;18207;32.078;34.818;2023-02-22T07:27:10;101226.69;;;26.84;38.74
23619;BME280;18207;32.078;34.818;2023-02-22T07:29:42;101230.50;;;26.91;38.66
23619;BME280;18207;32.078;34.818;2023-02-22T07:32:13;101222.22;;;26.98;38.74
23619;BME280;18207;32.078;34.818;2023-02-22T07:34:44;101222.84;;;27.07;38.59
23619;BME280;18207;32.078;34.818;2023-02-22T07:37:15;101224.19;;;27.13;38.64
23619;BME280;18207;32.078;34.818;2023-02-22T07:39:45;101219.16;;;27.22;38.50
23619;BME280;18207;32.078;34.818;2023-02-22T07:42:18;101226.63;;;27.30;38.41
23619;BME280;18207;32.078;34.818;2023-02-22T07:45:02;101209.38;;;27.35;38.16
23619;BME280;18207;32.078;34.818;2023-02-22T07:47:33;101212.34;;;27.42;38.17
23619;BME280;18207;32.078;34.818;2023-02-22T07:50:04;101208.50;;;27.50;38.07
23619;BME280;18207;32.078;34.818;2023-02-22T07:52:37;101216.28;;;27.57;38.02
23619;BME280;18207;32.078;34.818;2023-02-22T07:55:08;101206.69;;;27.61;37.92
23619;BME280;18207;32.078;34.818;2023-02-22T07:57:43;101203.59;;;27.66;37.90
23619;BME280;18207;32.078;34.818;2023-02-22T08:00:20;101206.13;;;27.71;37.72
23619;BME280;18207;32.078;34.818;2023-02-22T08:02:53;101203.81;;;27.76;37.84
23619;BME280;18207;32.078;34.818;2023-02-22T08:05:26;101206.78;;;27.83;37.50
23619;BME280;18207;32.078;34.818;2023-02-22T08:07:57;101205.28;;;27.89;37.48
23619;BME280;18207;32.078;34.818;2023-02-22T08:10:28;101199.75;;;27.96;37.47
23619;BME280;18207;32.078;34.818;2023-02-22T08:13:03;101199.09;;;28.03;37.04
23619;BME280;18207;32.078;34.818;2023-02-22T08:15:37;101198.34;;;28.06;36.86
23619;BME280;18207;32.078;34.818;2023-02-22T08:18:11;101204.50;;;28.11;37.22
23619;BME280;18207;32.078;34.818;2023-02-22T08:20:46;101202.53;;;28.15;36.78
23619;BME280;18207;32.078;34.818;2023-02-22T08:23:19;101202.25;;;28.20;36.83
23619;BME280;18207;32.078;34.818;2023-02-22T08:26:05;101187.47;;;28.27;36.94
23619;BME280;18207;32.078;34.818;2023-02-22T08:28:38;101201.66;;;28.30;36.77
23619;BME280;18207;32.078;34.818;2023-02-22T08:31:21;101198.50;;;28.35;36.59
23619;BME280;18207;32.078;34.818;2023-02-22T08:33:52;101199.38;;;28.39;36.53
23619;BME280;18207;32.078;34.818;2023-02-22T08:36:24;101201.88;;;28.44;36.17
23619;BME280;18207;32.078;34.818;2023-02-22T08:38:56;101199.94;;;28.48;36.18
23619;BME280;18207;32.078;34.818;2023-02-22T08:41:27;101193.16;;;28.53;36.19
23619;BME280;18207;32.078;34.818;2023-02-22T08:43:59;101194.03;;;28.57;35.96
23619;BME280;18207;32.078;34.818;2023-02-22T08:46:29;101191.25;;;28.60;35.90
23619;BME280;18207;32.078;34.818;2023-02-22T08:49:00;101190.50;;;28.63;36.06
23619;BME280;18207;32.078;34.818;2023-02-22T08:51:37;101191.38;;;28.67;35.94
23619;BME280;18207;32.078;34.818;2023-02-22T08:54:07;101184.97;;;28.70;35.89
23619;BME280;18207;32.078;34.818;2023-02-22T08:56:38;101186.19;;;28.72;35.45
23619;BME280;18207;32.078;34.818;2023-02-22T08:59:23;101180.53;;;28.72;35.81
23619;BME280;18207;32.078;34.818;2023-02-22T09:01:54;101182.97;;;28.74;35.50
23619;BME280;18207;32.078;34.818;2023-02-22T09:04:27;101177.72;;;28.72;35.42
23619;BME280;18207;32.078;34.818;2023-02-22T09:06:57;101171.63;;;28.70;35.39
23619;BME280;18207;32.078;34.818;2023-02-22T09:09:28;101174.00;;;28.68;35.15
23619;BME280;18207;32.078;34.818;2023-02-22T09:12:15;101172.75;;;28.66;34.86
23619;BME280;18207;32.078;34.818;2023-02-22T09:14:47;101160.59;;;28.62;34.99
23619;BME280;18207;32.078;34.818;2023-02-22T09:17:17;101165.34;;;28.58;34.80
23619;BME280;18207;32.078;34.818;2023-02-22T09:19:48;101158.47;;;28.56;34.81
23619;BME280;18207;32.078;34.818;2023-02-22T09:22:18;101161.22;;;28.52;34.71
23619;BME280;18207;32.078;34.818;2023-02-22T09:24:52;101161.59;;;28.51;34.53
23619;BME280;18207;32.078;34.818;2023-02-22T09:27:25;101157.06;;;28.46;34.45
23619;BME280;18207;32.078;34.818;2023-02-22T09:29:59;101152.94;;;28.40;34.45
23619;BME280;18207;32.078;34.818;2023-02-22T09:32:31;101154.88;;;28.36;34.25
23619;BME280;18207;32.078;34.818;2023-02-22T09:35:01;101149.19;;;28.33;33.98
23619;BME280;18207;32.078;34.818;2023-02-22T09:37:31;101142.22;;;28.27;34.06
23619;BME280;18207;32.078;34.818;2023-02-22T09:40:02;101147.69;;;28.20;34.06
23619;BME280;18207;32.078;34.818;2023-02-22T09:42:45;101136.28;;;28.13;33.84
23619;BME280;18207;32.078;34.818;2023-02-22T09:45:27;101139.44;;;28.08;34.11
23619;BME280;18207;32.078;34.818;2023-02-22T09:48:06;101134.91;;;28.03;33.83
23619;BME280;18207;32.078;34.818;2023-02-22T09:50:53;101136.84;;;27.99;34.13
23619;BME280;18207;32.078;34.818;2023-02-22T09:53:33;101133.56;;;27.97;33.83
23619;BME280;18207;32.078;34.818;2023-02-22T09:56:20;101129.06;;;27.93;34.11
23619;BME280;18207;32.078;34.818;2023-02-22T09:58:55;101122.53;;;27.89;34.04
23619;BME280;18207;32.078;34.818;2023-02-22T10:01:32;101119.22;;;27.83;33.91
23619;BME280;18207;32.078;34.818;2023-02-22T10:04:15;101119.50;;;27.78;33.87
23619;BME280;18207;32.078;34.818;2023-02-22T10:07:03;101113.34;;;27.73;33.53
23619;BME280;18207;32.078;34.818;2023-02-22T10:09:39;101118.13;;;27.69;33.70
23619;BME280;18207;32.078;34.818;2023-02-22T10:12:29;101102.66;;;27.63;33.44
23619;BME280;18207;32.078;34.818;2023-02-22T10:15:45;101104.59;;;27.59;33.80
23619;BME280;18207;32.078;34.818;2023-02-22T10:19:08;101104.44;;;27.52;33.79
23619;BME280;18207;32.078;34.818;2023-02-22T10:22:13;101099.91;;;27.48;33.55
23619;BME280;18207;32.078;34.818;2023-02-22T10:24:59;101098.66;;;27.45;33.68
23619;BME280;18207;32.078;34.818;2023-02-22T10:27:37;101094.94;;;27.41;33.73
23619;BME280;18207;32.078;34.818;2023-02-22T10:30:19;101080.72;;;27.57;33.17
23619;BME280;18207;32.078;34.818;2023-02-22T10:33:00;101083.75;;;27.45;33.39
23619;BME280;18207;32.078;34.818;2023-02-22T10:35:38;101084.34;;;27.35;33.33
23619;BME280;18207;32.078;34.818;2023-02-22T10:38:18;101091.84;;;27.27;33.54
23619;BME280;18207;32.078;34.818;2023-02-22T10:40:54;101082.88;;;27.22;33.63
23619;BME280;18207;32.078;34.818;2023-02-22T10:43:27;101090.00;;;27.16;33.44
23619;BME280;18207;32.078;34.818;2023-02-22T10:46:02;101082.66;;;27.11;33.37
23619;BME280;18207;32.078;34.818;2023-02-22T10:48:38;101083.75;;;27.07;33.43
23619;BME280;18207;32.078;34.818;2023-02-22T10:51:11;101078.41;;;27.02;33.59
23619;BME280;18207;32.078;34.818;2023-02-22T10:53:42;101070.25;;;26.97;33.13
23619;BME280;18207;32.078;34.818;2023-02-22T10:56:18;101067.78;;;26.95;33.46
23619;BME280;18207;32.078;34.818;2023-02-22T10:58:52;101064.41;;;26.90;33.66
23619;BME280;18207;32.078;34.818;2023-02-22T11:01:34;101063.56;;;26.86;33.65
23619;BME280;18207;32.078;34.818;2023-02-22T11:04:14;101059.03;;;26.82;33.64
23619;BME280;18207;32.078;34.818;2023-02-22T11:07:07;101060.47;;;26.76;33.62
23619;BME280;18207;32.078;34.818;2023-02-22T11:09:51;101053.50;;;26.70;33.58
23619;BME280;18207;32.078;34.818;2023-02-22T11:12:29;101052.53;;;26.62;33.51
23619;BME280;18207;32.078;34.818;2023-02-22T11:15:26;101058.47;;;26.57;33.70
23619;BME280;18207;32.078;34.818;2023-02-22T11:17:58;101050.28;;;26.52;33.85
23619;BME280;18207;32.078;34.818;2023-02-22T11:20:33;101043.75;;;26.48;33.75
23619;BME280;18207;32.078;34.818;2023-02-22T11:23:09;101047.66;;;26.44;33.49
23619;BME280;18207;32.078;34.818;2023-02-22T11:25:41;101046.78;;;26.40;33.68
23619;BME280;18207;32.078;34.818;2023-02-22T11:28:25;101045.03;;;26.35;33.56
23619;BME280;18207;32.078;34.818;2023-02-22T11:31:15;101050.16;;;26.30;33.64
23619;BME280;18207;32.078;34.818;2023-02-22T11:33:54;101046.06;;;26.27;33.50
23619;BME280;18207;32.078;34.818;2023-02-22T11:36:42;101050.00;;;26.23;33.58
23619;BME280;18207;32.078;34.818;2023-02-22T11:39:25;101043.91;;;26.21;33.65
23619;BME280;18207;32.078;34.818;2023-02-22T11:41:57;101036.53;;;26.16;34.06
23619;BME280;18207;32.078;34.818;2023-02-22T11:44:29;101032.81;;;26.12;33.81
23619;BME280;18207;32.078;34.818;2023-02-22T11:47:02;101035.16;;;26.10;33.85
23619;BME280;18207;32.078;34.818;2023-02-22T11:49:37;101045.19;;;26.08;34.09
23619;BME280;18207;32.078;34.818;2023-02-22T11:52:27;101033.03;;;26.04;33.89
23619;BME280;18207;32.078;34.818;2023-02-22T11:55:16;101036.56;;;26.01;33.81
23619;BME280;18207;32.078;34.818;2023-02-22T11:58:42;101028.03;;;25.98;33.88
23619;BME280;18207;32.078;34.818;2023-02-22T12:01:25;101032.38;;;25.95;34.17
23619;BME280;18207;32.078;34.818;2023-02-22T12:04:43;101027.84;;;25.91;34.04
23619;BME280;18207;32.078;34.818;2023-02-22T12:07:35;101035.03;;;25.88;33.86
23619;BME280;18207;32.078;34.818;2023-02-22T12:10:37;101041.38;;;25.85;34.25
23619;BME280;18207;32.078;34.818;2023-02-22T12:16:47;101036.41;;;25.79;34.10
23619;BME280;18207;32.078;34.818;2023-02-22T12:19:30;101039.56;;;25.77;34.42
23619;BME280;18207;32.078;34.818;2023-02-22T12:22:08;101036.25;;;25.75;34.14
23619;BME280;18207;32.078;34.818;2023-02-22T12:24:45;101042.25;;;25.74;33.96
23619;BME280;18207;32.078;34.818;2023-02-22T12:27:39;101043.44;;;25.73;34.15
23619;BME280;18207;32.078;34.818;2023-02-22T12:30:17;101045.78;;;25.71;34.30
23619;BME280;18207;32.078;34.818;2023-02-22T12:32:53;101042.56;;;25.69;34.27
23619;BME280;18207;32.078;34.818;2023-02-22T12:35:30;101035.63;;;25.66;34.37
23619;BME280;18207;32.078;34.818;2023-02-22T12:38:10;101039.63;;;25.65;34.21
23619;BME280;18207;32.078;34.818;2023-02-22T12:40:50;101034.38;;;25.64;34.19
23619;BME280;18207;32.078;34.818;2023-02-22T12:43:31;101034.72;;;25.62;34.48
23619;BME280;18207;32.078;34.818;2023-02-22T12:46:09;101035.91;;;25.61;34.33
23619;BME280;18207;32.078;34.818;2023-02-22T12:48:48;101035.06;;;25.61;34.47
23619;BME280;18207;32.078;34.818;2023-02-22T12:51:33;101039.09;;;25.60;34.34
23619;BME280;18207;32.078;34.818;2023-02-22T12:54:17;101039.09;;;25.60;34.66
23619;BME280;18207;32.078;34.818;2023-02-22T12:56:55;101037.47;;;25.59;34.43
23619;BME280;18207;32.078;34.818;2023-02-22T12:59:36;101033.81;;;25.58;34.26
23619;BME280;18207;32.078;34.818;2023-02-22T13:02:18;101029.34;;;25.57;34.35
23619;BME280;18207;32.078;34.818;2023-02-22T13:04:50;101038.97;;;25.56;34.51
23619;BME280;18207;32.078;34.818;2023-02-22T13:07:40;101037.72;;;25.54;34.37
23619;BME280;18207;32.078;34.818;2023-02-22T13:10:34;101036.81;;;25.50;34.47
23619;BME280;18207;32.078;34.818;2023-02-22T13:13:21;101038.00;;;25.49;34.57
23619;BME280;18207;32.078;34.818;2023-02-22T13:16:05;101036.38;;;25.48;34.53
23619;BME280;18207;32.078;34.818;2023-02-22T13:18:45;101043.53;;;25.45;34.66
23619;BME280;18207;32.078;34.818;2023-02-22T13:21:28;101046.69;;;25.44;34.29
23619;BME280;18207;32.078;34.818;2023-02-22T13:24:07;101042.63;;;25.41;34.58
23619;BME280;18207;32.078;34.818;2023-02-22T13:26:50;101046.13;;;25.38;34.52
23619;BME280;18207;32.078;34.818;2023-02-22T13:29:29;101040.03;;;25.36;34.85
23619;BME280;18207;32.078;34.818;2023-02-22T13:32:47;101054.84;;;25.33;34.90
23619;BME280;18207;32.078;34.818;2023-02-22T13:35:51;101045.50;;;25.29;34.81
23619;BME280;18207;32.078;34.818;2023-02-22T13:39:08;101047.03;;;25.27;34.76
23619;BME280;18207;32.078;34.818;2023-02-22T13:42:02;101048.59;;;25.24;34.80